Time;durP1;ratioP1;P1;durP2;ratioP2;P2;SDS_P1;SDS_P2;PMS_P1;PMS_P2;Temp;Humidity;BMP_temperature;BMP_pressure;BME280_temperature;BME280_humidity;BME280_pressure;Samples;Min_cycle;Max_cycle;Signal;HPM_P1;HPM_P2
2021/06/10 00:01:39;;;;;;;6.00;4.80;;;;;;;13.91;52.50;100372.91;154010;1093;103138;-74
2021/06/10 00:04:44;;;;;;;5.47;4.60;;;;;;;13.88;52.42;100373.28;153960;1096;103190;-76
2021/06/10 00:07:50;;;;;;;5.63;4.40;;;;;;;13.85;52.77;100384.34;153952;1094;103116;-73
2021/06/10 00:10:54;;;;;;;6.57;4.57;;;;;;;13.82;52.68;100376.62;154029;1096;103125;-75
2021/06/10 00:13:59;;;;;;;5.03;4.45;;;;;;;13.81;52.89;100372.28;153941;1101;103287;-74
2021/06/10 00:17:04;;;;;;;6.45;4.70;;;;;;;13.81;53.06;100380.33;154030;1093;103126;-76
2021/06/10 00:20:13;;;;;;;5.58;4.78;;;;;;;13.78;52.96;100377.97;154024;1095;103129;-75
2021/06/10 00:23:17;;;;;;;5.10;4.57;;;;;;;13.77;52.92;100376.31;154010;1093;103122;-76
2021/06/10 00:26:22;;;;;;;6.23;4.50;;;;;;;13.70;53.34;100368.95;153969;1095;103195;-77
2021/06/10 00:29:26;;;;;;;6.23;4.60;;;;;;;13.66;52.90;100370.28;153975;1101;103192;-76
2021/06/10 00:32:31;;;;;;;4.98;4.45;;;;;;;13.61;53.19;100367.30;153984;1093;103190;-76
2021/06/10 00:35:36;;;;;;;5.20;4.23;;;;;;;13.59;53.23;100368.45;153952;1097;103140;-77
2021/06/10 00:38:41;;;;;;;5.38;4.63;;;;;;;13.56;53.24;100364.27;153970;1101;103555;-76
2021/06/10 00:41:45;;;;;;;4.67;4.17;;;;;;;13.52;53.46;100368.30;153983;1093;103111;-78
2021/06/10 00:44:50;;;;;;;5.25;4.25;;;;;;;13.47;53.43;100363.47;153937;1093;103310;-77
2021/06/10 00:47:56;;;;;;;8.58;4.45;;;;;;;13.42;53.49;100364.98;153967;1096;103196;-76
2021/06/10 00:51:01;;;;;;;5.65;4.35;;;;;;;13.40;53.88;100359.78;153967;1101;103221;-77
2021/06/10 00:54:06;;;;;;;5.55;4.45;;;;;;;13.37;53.89;100353.91;153954;1101;103133;-77
2021/06/10 00:57:11;;;;;;;6.50;4.30;;;;;;;13.32;53.67;100355.27;153975;1093;103123;-78
2021/06/10 01:00:18;;;;;;;4.93;4.28;;;;;;;13.31;53.69;100358.94;153942;1101;103264;-77
2021/06/10 01:03:23;;;;;;;4.90;4.40;;;;;;;13.25;54.13;100361.43;154016;1097;103515;-78
2021/06/10 01:06:33;;;;;;;5.17;4.50;;;;;;;13.16;53.75;100355.22;153936;1101;103115;-76
2021/06/10 01:09:42;;;;;;;5.60;4.40;;;;;;;13.08;54.00;100357.91;153939;1096;103199;-77
2021/06/10 01:12:57;;;;;;;5.77;4.67;;;;;;;13.02;54.73;100361.26;153951;1101;103128;-80
2021/06/10 01:16:07;;;;;;;5.95;4.85;;;;;;;13.03;54.74;100360.23;153938;1101;103240;-76
2021/06/10 01:19:18;;;;;;;7.55;5.13;;;;;;;13.03;54.78;100362.91;153975;1101;103192;-77
2021/06/10 01:22:33;;;;;;;6.73;5.30;;;;;;;13.08;55.01;100360.59;153961;1097;103150;-78
2021/06/10 01:25:51;;;;;;;6.40;5.07;;;;;;;13.07;54.71;100354.39;153962;1093;103215;-76
2021/06/10 01:28:57;;;;;;;5.78;4.60;;;;;;;13.02;55.06;100362.09;153987;1093;103195;-77
2021/06/10 01:32:02;;;;;;;7.15;4.70;;;;;;;13.00;55.05;100368.63;153966;1101;103319;-78
2021/06/10 01:35:09;;;;;;;5.65;5.00;;;;;;;12.98;55.26;100370.63;153957;1101;103190;-81
2021/06/10 01:38:15;;;;;;;6.20;5.25;;;;;;;12.96;54.92;100373.47;153989;1093;103130;-78
2021/06/10 01:41:22;;;;;;;9.57;5.47;;;;;;;12.93;54.90;100363.94;153996;1101;103021;-75
2021/06/10 01:44:29;;;;;;;6.35;4.80;;;;;;;12.93;55.26;100366.61;153986;1101;103203;-78
2021/06/10 01:47:34;;;;;;;5.93;4.68;;;;;;;12.91;55.35;100371.30;153934;1093;103400;-76
2021/06/10 01:50:40;;;;;;;5.63;5.03;;;;;;;12.88;55.36;100366.27;154081;1093;103223;-78
2021/06/10 01:53:47;;;;;;;6.10;5.13;;;;;;;12.85;55.39;100361.23;154103;1101;103202;-80
2021/06/10 01:56:53;;;;;;;7.70;5.50;;;;;;;12.82;55.69;100374.10;154189;1096;103196;-80
2021/06/10 01:59:58;;;;;;;7.20;5.50;;;;;;;12.81;55.28;100373.27;153934;1093;103108;-79
2021/06/10 02:03:04;;;;;;;6.60;5.50;;;;;;;12.76;55.38;100379.13;153931;1095;103276;-78
2021/06/10 02:06:10;;;;;;;7.13;5.55;;;;;;;12.76;55.44;100375.63;153971;1101;103238;-82
2021/06/10 02:09:16;;;;;;;6.15;5.25;;;;;;;12.74;56.01;100381.14;154018;1101;103187;-80
2021/06/10 02:12:21;;;;;;;7.50;5.57;;;;;;;12.74;55.82;100377.60;153946;1096;103195;-79
2021/06/10 02:15:26;;;;;;;6.50;5.40;;;;;;;12.77;55.25;100377.28;153922;1101;103193;-80
2021/06/10 02:18:31;;;;;;;6.00;5.33;;;;;;;12.75;56.14;100382.80;153925;1093;103251;-78
2021/06/10 02:21:35;;;;;;;7.08;5.65;;;;;;;12.74;55.42;100381.14;153971;1101;103196;-78
2021/06/10 02:24:40;;;;;;;6.50;5.20;;;;;;;12.74;55.50;100386.50;153943;1101;103130;-79
2021/06/10 02:27:44;;;;;;;5.70;5.00;;;;;;;12.72;56.01;100384.96;153936;1093;103129;-81
2021/06/10 02:30:50;;;;;;;5.77;5.17;;;;;;;12.68;56.26;100387.16;153964;1101;103133;-80
2021/06/10 02:33:54;;;;;;;6.00;5.00;;;;;;;12.67;55.62;100381.96;153978;1093;103265;-79
2021/06/10 02:37:00;;;;;;;6.58;4.98;;;;;;;12.67;55.66;100384.64;154045;1097;103133;-78
2021/06/10 02:40:09;;;;;;;6.67;5.03;;;;;;;12.65;55.80;100387.47;154153;1096;103195;-78
2021/06/10 02:43:14;;;;;;;6.63;5.23;;;;;;;12.64;55.80;100385.78;154042;1101;103499;-77
2021/06/10 02:46:19;;;;;;;7.10;5.60;;;;;;;12.64;56.31;100383.10;153991;1093;103193;-80
2021/06/10 02:49:26;;;;;;;5.83;4.97;;;;;;;12.64;55.98;100380.42;154149;1095;103183;-73
2021/06/10 02:52:31;;;;;;;6.28;5.08;;;;;;;12.66;55.98;100388.30;154071;1101;103091;-78
2021/06/10 02:55:37;;;;;;;5.37;4.87;;;;;;;12.62;55.85;100382.43;154002;1101;103200;-75
2021/06/10 02:58:44;;;;;;;6.50;5.70;;;;;;;12.66;56.21;100388.30;153974;1101;103199;-75
2021/06/10 03:01:49;;;;;;;6.55;5.48;;;;;;;12.72;56.25;100387.64;154045;1093;103263;-74
2021/06/10 03:04:53;;;;;;;6.33;5.30;;;;;;;12.75;56.39;100379.30;154009;1094;103289;-75
2021/06/10 03:07:59;;;;;;;7.20;5.47;;;;;;;12.78;56.56;100387.01;154058;1096;103217;-75
2021/06/10 03:11:06;;;;;;;6.90;5.20;;;;;;;12.84;56.45;100390.88;154072;1094;103309;-74
2021/06/10 03:14:12;;;;;;;6.57;5.40;;;;;;;13.00;57.01;100387.38;153965;1101;103196;-75
2021/06/10 03:17:20;;;;;;;6.17;5.43;;;;;;;13.24;56.71;100386.53;154009;1101;103100;-77
2021/06/10 03:20:25;;;;;;;5.33;4.65;;;;;;;13.53;56.45;100381.55;154078;1096;103210;-76
2021/06/10 03:23:30;;;;;;;5.83;5.23;;;;;;;13.91;56.37;100378.28;153991;1101;103195;-77
2021/06/10 03:26:36;;;;;;;6.08;4.98;;;;;;;14.25;55.99;100379.86;154016;1101;103135;-78
2021/06/10 03:29:40;;;;;;;6.40;5.33;;;;;;;14.61;55.87;100379.39;154015;1101;103133;-76
2021/06/10 03:32:45;;;;;;;6.15;5.43;;;;;;;14.97;55.77;100376.13;154106;1097;103177;-77
2021/06/10 03:35:50;;;;;;;6.08;5.40;;;;;;;15.28;55.90;100378.73;154239;1096;103125;-77
2021/06/10 03:38:56;;;;;;;6.10;5.10;;;;;;;15.60;55.63;100376.78;154324;1101;103148;-76
2021/06/10 03:42:02;;;;;;;5.50;5.00;;;;;;;15.89;55.33;100379.52;154323;1101;103132;-76
2021/06/10 03:45:09;;;;;;;7.97;6.13;;;;;;;16.19;55.64;100381.41;154346;1097;103199;-77
2021/06/10 03:48:15;;;;;;;5.63;5.03;;;;;;;16.45;55.49;100384.41;154213;1095;103198;-74
2021/06/10 03:51:21;;;;;;;7.03;6.10;;;;;;;16.72;55.23;100384.73;154248;1101;103553;-74
2021/06/10 03:54:26;;;;;;;6.85;6.10;;;;;;;16.90;55.75;100391.58;154101;1101;103200;-76
2021/06/10 03:57:30;;;;;;;8.50;7.20;;;;;;;17.12;55.33;100392.44;154259;1101;103486;-75
2021/06/10 04:00:35;;;;;;;8.15;6.98;;;;;;;17.35;55.61;100395.77;153931;1097;104105;-74
2021/06/10 04:03:40;;;;;;;11.98;6.73;;;;;;;17.43;55.53;100398.31;154075;1093;103125;-75
2021/06/10 04:06:45;;;;;;;7.23;6.53;;;;;;;17.50;55.80;100401.08;153979;1096;103178;-78
2021/06/10 04:09:49;;;;;;;8.40;6.87;;;;;;;17.54;55.81;100407.75;153978;1096;103128;-77
2021/06/10 04:12:54;;;;;;;9.75;7.05;;;;;;;17.62;55.90;100407.60;153957;1096;103195;-77
2021/06/10 04:15:58;;;;;;;9.67;7.23;;;;;;;17.71;55.69;100408.30;153909;1101;103145;-76
2021/06/10 04:19:03;;;;;;;7.83;6.80;;;;;;;17.84;55.88;100407.58;153990;1101;103113;-77
2021/06/10 04:22:07;;;;;;;8.43;7.33;;;;;;;17.94;55.76;100405.39;153923;1101;103288;-77
2021/06/10 04:25:14;;;;;;;8.73;7.48;;;;;;;18.00;55.52;100411.86;153981;1097;103132;-77
2021/06/10 04:28:18;;;;;;;9.47;7.57;;;;;;;18.00;56.24;100407.28;153941;1093;103200;-77
2021/06/10 04:31:23;;;;;;;9.00;7.73;;;;;;;18.02;55.81;100401.70;153933;1097;103204;-77
2021/06/10 04:34:28;;;;;;;9.17;7.80;;;;;;;18.02;56.06;100404.39;154057;1096;103200;-78
2021/06/10 04:37:33;;;;;;;8.20;7.05;;;;;;;18.07;55.92;100406.48;153978;1096;103288;-77
2021/06/10 04:40:37;;;;;;;8.33;7.30;;;;;;;18.17;55.84;100409.69;154016;1101;103196;-76
2021/06/10 04:43:42;;;;;;;8.43;7.53;;;;;;;18.19;55.76;100407.62;153973;1095;103197;-77
2021/06/10 04:46:46;;;;;;;8.10;6.90;;;;;;;18.27;55.98;100401.22;153947;1097;103198;-77
2021/06/10 04:49:51;;;;;;;8.97;7.30;;;;;;;18.36;55.93;100402.69;153972;1095;103193;-76
2021/06/10 04:52:56;;;;;;;9.23;7.75;;;;;;;18.41;56.19;100408.34;153931;1096;103212;-76
2021/06/10 04:56:00;;;;;;;10.50;7.75;;;;;;;18.46;56.03;100397.77;153972;1096;103133;-77
2021/06/10 04:59:05;;;;;;;9.13;7.53;;;;;;;18.54;55.73;100400.30;153907;1101;103243;-77
2021/06/10 05:02:09;;;;;;;9.65;7.85;;;;;;;18.64;55.88;100403.44;153957;1101;103587;-77
2021/06/10 05:05:15;;;;;;;11.77;7.97;;;;;;;18.73;55.66;100392.47;153942;1096;103182;-77
2021/06/10 05:08:19;;;;;;;8.60;7.70;;;;;;;18.80;55.78;100391.48;153915;1101;103300;-78
2021/06/10 05:11:24;;;;;;;7.90;7.10;;;;;;;18.93;55.78;100398.77;154012;1101;103201;-78
2021/06/10 05:14:28;;;;;;;9.90;7.33;;;;;;;19.02;55.57;100394.02;153950;1097;103200;-77
2021/06/10 05:17:33;;;;;;;7.63;6.83;;;;;;;19.14;55.56;100394.24;153921;1101;103195;-77
2021/06/10 05:20:37;;;;;;;7.33;6.60;;;;;;;19.29;55.32;100396.77;154003;1097;103134;-76
2021/06/10 05:23:42;;;;;;;7.85;6.85;;;;;;;19.38;55.01;100392.80;153933;1101;103206;-77
2021/06/10 05:26:47;;;;;;;8.60;7.20;;;;;;;19.31;55.24;100394.69;153979;1093;103123;-77
2021/06/10 05:29:51;;;;;;;8.17;7.33;;;;;;;19.34;55.17;100386.14;153940;1095;103136;-77
2021/06/10 05:32:56;;;;;;;8.80;6.93;;;;;;;19.44;55.42;100383.87;153925;1093;103185;-77
2021/06/10 05:36:01;;;;;;;7.78;6.98;;;;;;;19.52;55.48;100383.65;154033;1101;103116;-78
2021/06/10 05:39:06;;;;;;;7.40;6.37;;;;;;;19.62;55.33;100384.05;153954;1093;103203;-78
2021/06/10 05:42:13;;;;;;;7.58;6.75;;;;;;;19.63;55.08;100382.20;153984;1101;103192;-77
2021/06/10 05:45:18;;;;;;;7.07;6.33;;;;;;;19.62;54.72;100392.17;153909;1094;103197;-78
2021/06/10 05:48:22;;;;;;;7.20;6.48;;;;;;;19.54;54.70;100384.27;153920;1101;103189;-77
2021/06/10 05:51:27;;;;;;;6.77;6.13;;;;;;;19.61;54.87;100385.11;153954;1101;103206;-78
2021/06/10 05:54:32;;;;;;;6.90;6.20;;;;;;;19.74;54.79;100378.86;153952;1093;103582;-77
2021/06/10 05:57:36;;;;;;;7.40;6.17;;;;;;;19.87;54.94;100388.85;153998;1093;103213;-78
2021/06/10 06:00:41;;;;;;;7.00;5.90;;;;;;;19.99;55.07;100387.14;153941;1101;103125;-77
2021/06/10 06:03:46;;;;;;;8.33;6.40;;;;;;;20.05;54.31;100381.94;153945;1093;103131;-77
2021/06/10 06:06:50;;;;;;;7.70;6.87;;;;;;;19.95;54.32;100372.37;153934;1101;103196;-76
2021/06/10 06:09:55;;;;;;;7.80;6.00;;;;;;;20.00;54.21;100383.41;153942;1093;103187;-77
2021/06/10 06:13:02;;;;;;;9.23;6.43;;;;;;;19.95;54.08;100385.09;153974;1101;103128;-78
2021/06/10 06:16:08;;;;;;;7.25;6.18;;;;;;;19.91;54.14;100390.09;153957;1093;103110;-77
2021/06/10 06:19:13;;;;;;;7.90;5.47;;;;;;;19.97;54.29;100381.11;153945;1093;103243;-77
2021/06/10 06:22:18;;;;;;;6.75;6.05;;;;;;;20.01;54.14;100389.65;153928;1093;103112;-78
2021/06/10 06:25:23;;;;;;;6.90;5.33;;;;;;;19.94;54.19;100386.97;153956;1101;103213;-77
2021/06/10 06:28:28;;;;;;;6.20;5.60;;;;;;;19.89;54.23;100385.94;153997;1093;103306;-77
2021/06/10 06:31:33;;;;;;;7.77;6.23;;;;;;;19.77;53.84;100383.05;154020;1101;103123;-78
2021/06/10 06:34:37;;;;;;;6.48;5.23;;;;;;;19.74;54.28;100378.04;153917;1102;103106;-75
2021/06/10 06:37:42;;;;;;;7.85;5.70;;;;;;;19.75;54.50;100385.13;153935;1101;103190;-78
2021/06/10 06:40:48;;;;;;;7.40;4.77;;;;;;;19.84;54.41;100383.84;153921;1102;103276;-78
2021/06/10 06:43:53;;;;;;;7.60;5.17;;;;;;;19.89;54.57;100389.47;153992;1101;103127;-78
2021/06/10 06:46:57;;;;;;;5.58;5.05;;;;;;;19.93;53.72;100392.59;153931;1101;103131;-78
2021/06/10 06:50:02;;;;;;;7.77;5.50;;;;;;;20.01;53.94;100389.65;153944;1101;103104;-78
2021/06/10 06:53:06;;;;;;;6.50;5.90;;;;;;;19.99;53.97;100387.14;153927;1101;103207;-78
2021/06/10 06:56:11;;;;;;;7.90;5.10;;;;;;;20.00;53.76;100388.83;154022;1101;103280;-76
2021/06/10 06:59:15;;;;;;;6.03;4.50;;;;;;;20.04;53.83;100391.95;153993;1097;103591;-78
2021/06/10 07:02:20;;;;;;;5.68;4.68;;;;;;;20.10;53.83;100382.97;153930;1097;103124;-78
2021/06/10 07:05:25;;;;;;;4.73;4.27;;;;;;;20.24;53.69;100389.17;153921;1101;103221;-77
2021/06/10 07:08:31;;;;;;;5.30;4.80;;;;;;;20.33;53.33;100393.31;153957;1093;103642;-77
2021/06/10 07:11:37;;;;;;;6.25;5.05;;;;;;;20.34;53.01;100392.28;153930;1101;103205;-78
2021/06/10 07:14:42;;;;;;;8.57;4.90;;;;;;;20.38;53.18;100393.52;154016;1101;103223;-77
2021/06/10 07:17:46;;;;;;;7.05;5.30;;;;;;;20.35;52.60;100402.06;153904;1101;103214;-77
2021/06/10 07:20:51;;;;;;;5.13;4.00;;;;;;;20.40;52.98;100396.02;153951;1096;103147;-78
2021/06/10 07:23:55;;;;;;;4.73;3.88;;;;;;;20.42;52.53;100387.64;153944;1101;103101;-78
2021/06/10 07:27:00;;;;;;;4.55;3.65;;;;;;;20.38;51.54;100395.37;153951;1101;103320;-79
2021/06/10 07:30:06;;;;;;;6.20;4.50;;;;;;;20.42;51.18;100404.77;153976;1093;103132;-78
2021/06/10 07:33:11;;;;;;;4.30;3.90;;;;;;;20.48;51.92;100405.78;154014;1095;103196;-78
2021/06/10 07:36:15;;;;;;;4.75;3.45;;;;;;;20.54;51.83;100399.50;153996;1101;103151;-78
2021/06/10 07:39:20;;;;;;;5.30;3.67;;;;;;;20.67;51.87;100404.89;153945;1101;103201;-77
2021/06/10 07:42:25;;;;;;;6.05;4.70;;;;;;;20.74;51.81;100411.09;153952;1101;103190;-77
2021/06/10 07:45:30;;;;;;;4.18;3.75;;;;;;;20.78;51.46;100406.92;153988;1101;103208;-79
2021/06/10 07:48:35;;;;;;;5.30;4.05;;;;;;;20.86;51.48;100402.27;154009;1096;103125;-78
2021/06/10 07:51:39;;;;;;;5.80;3.75;;;;;;;20.92;51.52;100399.55;153937;1101;103203;-77
2021/06/10 07:54:44;;;;;;;4.75;4.18;;;;;;;20.95;50.10;100396.38;153977;1101;103139;-77
2021/06/10 07:57:49;;;;;;;4.40;4.00;;;;;;;20.92;49.87;100407.68;154015;1101;103178;-78
2021/06/10 08:00:54;;;;;;;4.23;3.73;;;;;;;20.93;49.18;100408.50;153995;1101;103124;-78
2021/06/10 08:03:58;;;;;;;5.78;4.33;;;;;;;20.91;50.19;100405.17;153938;1096;103213;-79
2021/06/10 08:07:03;;;;;;;5.00;4.50;;;;;;;20.97;50.45;100410.55;153921;1093;103100;-77
2021/06/10 08:10:09;;;;;;;5.00;4.40;;;;;;;21.06;50.29;100405.71;153988;1101;103199;-78
2021/06/10 08:13:15;;;;;;;4.90;4.00;;;;;;;21.12;49.84;100412.15;153996;1101;103194;-78
2021/06/10 08:16:20;;;;;;;5.10;4.60;;;;;;;21.18;49.55;100406.66;154039;1101;103192;-78
2021/06/10 08:19:25;;;;;;;4.70;3.60;;;;;;;21.30;50.35;100408.67;153993;1093;103199;-78
2021/06/10 08:22:30;;;;;;;5.93;4.60;;;;;;;21.47;49.81;100414.43;153975;1101;103139;-78
2021/06/10 08:25:41;;;;;;;5.60;4.48;;;;;;;21.54;49.94;100416.04;153956;1101;103139;-77
2021/06/10 08:28:46;;;;;;;6.10;5.00;;;;;;;21.59;49.53;100409.11;153950;1101;103164;-78
2021/06/10 08:31:52;;;;;;;5.27;4.23;;;;;;;21.73;49.83;100413.39;154002;1101;103154;-79
2021/06/10 08:34:56;;;;;;;4.80;4.37;;;;;;;21.83;49.21;100410.16;153995;1093;103572;-77
2021/06/10 08:38:05;;;;;;;6.13;4.23;;;;;;;21.88;48.69;100405.72;153931;1101;103629;-79
2021/06/10 08:41:12;;;;;;;5.05;4.30;;;;;;;22.04;47.98;100403.47;153959;1093;103138;-78
2021/06/10 08:44:16;;;;;;;5.83;4.45;;;;;;;22.21;49.19;100393.67;153908;1101;103293;-79
2021/06/10 08:47:21;;;;;;;6.43;4.55;;;;;;;22.34;48.41;100415.30;153944;1101;103160;-78
2021/06/10 08:50:28;;;;;;;5.07;3.93;;;;;;;22.43;47.98;100406.83;153960;1101;103230;-78
2021/06/10 08:53:32;;;;;;;4.88;4.30;;;;;;;22.58;48.33;100399.10;153971;1101;103118;-79
2021/06/10 08:56:40;;;;;;;3.90;3.40;;;;;;;22.77;48.17;100393.61;153902;1101;103100;-77
2021/06/10 08:59:45;;;;;;;4.43;3.70;;;;;;;22.74;45.93;100403.89;153924;1101;103299;-78
2021/06/10 09:02:53;;;;;;;4.85;3.63;;;;;;;22.65;47.26;100397.13;153981;1101;103196;-80
2021/06/10 09:06:05;;;;;;;6.67;3.37;;;;;;;22.70;46.75;100401.88;153987;1101;103217;-78
2021/06/10 09:09:09;;;;;;;4.85;3.35;;;;;;;22.92;45.72;100399.47;153968;1096;103115;-78
2021/06/10 09:12:16;;;;;;;3.40;2.93;;;;;;;23.09;46.31;100383.34;153975;1101;103190;-78
2021/06/10 09:15:23;;;;;;;4.03;3.03;;;;;;;23.26;45.94;100388.95;153961;1101;103200;-79
2021/06/10 09:18:31;;;;;;;3.38;3.08;;;;;;;23.09;45.64;100395.05;154036;1101;103128;-79
2021/06/10 09:21:39;;;;;;;3.68;3.28;;;;;;;22.81;45.96;100389.39;153942;1101;103145;-78
2021/06/10 09:24:44;;;;;;;3.38;3.08;;;;;;;22.82;46.10;100391.04;153972;1101;103129;-79
2021/06/10 09:27:56;;;;;;;3.13;2.47;;;;;;;23.00;45.28;100391.00;154079;1093;103132;-79
2021/06/10 09:31:01;;;;;;;4.13;2.55;;;;;;;23.19;45.84;100388.22;153962;1093;103278;-78
2021/06/10 09:34:13;;;;;;;2.90;2.60;;;;;;;23.49;45.54;100390.88;154014;1094;103142;-79
2021/06/10 09:37:33;;;;;;;2.80;2.60;;;;;;;23.71;44.79;100383.80;153962;1101;103195;-79
2021/06/10 09:40:38;;;;;;;2.97;2.50;;;;;;;23.85;43.71;100381.69;153943;1101;103182;-79
2021/06/10 09:43:46;;;;;;;2.77;2.40;;;;;;;23.68;43.93;100388.89;153943;1093;103197;-79
2021/06/10 09:47:05;;;;;;;3.85;2.70;;;;;;;23.58;43.20;100391.38;153985;1101;103270;-79
2021/06/10 09:50:22;;;;;;;2.50;2.30;;;;;;;23.52;43.27;100385.80;153966;1101;103214;-77
2021/06/10 09:53:29;;;;;;;3.67;2.40;;;;;;;23.58;41.79;100381.30;153948;1093;103166;-78
2021/06/10 09:56:33;;;;;;;3.33;2.70;;;;;;;23.60;41.93;100373.72;153991;1101;103218;-77
2021/06/10 09:59:50;;;;;;;2.58;2.35;;;;;;;23.46;41.99;100391.34;153985;1101;103152;-78
2021/06/10 10:02:54;;;;;;;4.65;2.93;;;;;;;23.19;42.34;100390.94;153967;1101;103365;-77
2021/06/10 10:06:03;;;;;;;3.37;2.57;;;;;;;23.17;42.41;100374.84;153946;1093;103564;-79
2021/06/10 10:09:09;;;;;;;3.23;2.67;;;;;;;23.41;42.09;100388.52;153949;1101;103099;-80
2021/06/10 10:12:15;;;;;;;2.40;2.20;;;;;;;23.67;41.75;100377.17;153936;1101;103125;-78
2021/06/10 10:15:20;;;;;;;2.50;2.30;;;;;;;23.93;41.26;100379.67;153966;1093;103129;-79
2021/06/10 10:18:24;;;;;;;3.03;2.20;;;;;;;24.07;41.39;100368.26;153936;1096;103208;-79
2021/06/10 10:21:32;;;;;;;2.50;2.23;;;;;;;24.15;39.29;100368.96;153966;1101;103125;-78
2021/06/10 10:24:37;;;;;;;2.40;2.03;;;;;;;24.08;38.57;100369.11;153930;1095;103206;-78
2021/06/10 10:27:43;;;;;;;2.87;1.93;;;;;;;24.05;40.18;100362.22;153910;1094;103135;-78
2021/06/10 10:30:48;;;;;;;2.33;2.10;;;;;;;24.01;40.14;100365.67;153972;1101;103238;-78
2021/06/10 10:33:53;;;;;;;2.30;2.10;;;;;;;24.06;39.62;100368.52;153958;1101;103275;-78
2021/06/10 10:36:57;;;;;;;2.28;2.08;;;;;;;24.14;40.39;100362.69;153993;1101;103140;-78
2021/06/10 10:40:02;;;;;;;2.15;2.03;;;;;;;24.20;40.57;100367.17;153991;1096;103123;-78
2021/06/10 10:43:13;;;;;;;2.93;2.47;;;;;;;24.24;40.21;100356.63;153954;1094;103129;-78
2021/06/10 10:46:18;;;;;;;;;;;;;;;24.14;38.94;100362.69;153996;1101;103212;-78
2021/06/10 10:49:25;;;;;;;2.30;2.10;;;;;;;23.81;38.48;100369.61;153962;1101;103179;-78
2021/06/10 10:52:36;;;;;;;2.90;1.73;;;;;;;23.67;38.85;100362.70;153998;1101;103124;-78
2021/06/10 10:55:39;;;;;;;;;;;;;;;23.81;37.23;100368.79;153948;1101;103567;-78
2021/06/10 10:59:10;;;;;;;1.90;1.80;;;;;;;23.87;37.03;100360.48;153977;1101;103128;-78
2021/06/10 11:02:18;;;;;;;;;;;;;;;23.78;37.84;100351.00;153961;1093;103104;-79
2021/06/10 11:05:34;;;;;;;2.33;1.80;;;;;;;23.73;37.73;100348.15;153998;1101;103189;-79
2021/06/10 11:08:59;;;;;;;1.70;1.60;;;;;;;23.68;37.29;100356.20;153961;1101;103165;-79
2021/06/10 11:12:10;;;;;;;2.73;1.50;;;;;;;23.71;38.62;100347.53;153971;1101;103195;-78
2021/06/10 11:15:29;;;;;;;;;;;;;;;23.80;37.70;100345.31;153999;1096;103783;-80
2021/06/10 11:18:57;;;;;;;2.53;1.80;;;;;;;23.75;38.28;100340.56;153979;1096;103220;-78
2021/06/10 11:22:04;;;;;;;2.17;1.50;;;;;;;23.78;38.38;100339.25;153866;1101;103243;-78
2021/06/10 11:25:15;;;;;;;2.00;1.60;;;;;;;23.63;36.69;100350.62;153916;1096;103142;-79
2021/06/10 11:28:22;;;;;;;3.68;1.65;;;;;;;23.49;36.51;100339.14;153899;1095;103219;-78
2021/06/10 11:31:28;;;;;;;3.20;1.60;;;;;;;23.37;36.49;100330.97;153956;1096;103125;-78
2021/06/10 11:34:34;;;;;;;2.13;1.55;;;;;;;23.25;37.41;100317.35;153961;1096;103224;-79
2021/06/10 11:37:40;;;;;;;2.47;1.40;;;;;;;23.34;36.74;100315.09;153948;1101;103211;-78
2021/06/10 11:40:46;;;;;;;1.30;1.20;;;;;;;23.43;35.85;100312.86;154007;1101;103227;-80
2021/06/10 11:43:55;;;;;;;3.33;1.37;;;;;;;23.53;35.24;100315.80;153960;1101;103125;-79
2021/06/10 11:47:00;;;;;;;1.58;1.40;;;;;;;23.66;35.67;100312.02;153960;1101;103128;-78
2021/06/10 11:50:21;;;;;;;1.58;1.18;;;;;;;23.70;35.73;100310.47;153973;1102;103201;-79
2021/06/10 11:53:30;;;;;;;1.73;1.38;;;;;;;23.78;35.61;100299.23;153914;1096;103269;-79
2021/06/10 11:56:35;;;;;;;2.10;1.30;;;;;;;23.89;35.27;100305.73;153969;1101;103252;-79
2021/06/10 11:59:41;;;;;;;1.88;1.30;;;;;;;24.01;35.51;100309.25;153933;1101;103214;-79
2021/06/10 12:02:54;;;;;;;1.10;1.00;;;;;;;24.00;35.50;100299.44;153939;1097;103132;-78
2021/06/10 12:05:58;;;;;;;1.93;1.13;;;;;;;24.09;35.33;100287.06;153931;1096;103227;-79
2021/06/10 12:09:15;;;;;;;1.43;1.00;;;;;;;24.22;35.37;100280.52;153915;1101;103198;-79
2021/06/10 12:12:34;;;;;;;1.47;1.20;;;;;;;24.28;32.56;100297.80;153989;1101;103136;-78
2021/06/10 12:15:44;;;;;;;1.73;1.17;;;;;;;24.34;34.78;100293.28;153949;1101;103131;-78
2021/06/10 12:18:51;;;;;;;2.35;1.30;;;;;;;24.45;34.52;100293.22;153898;1101;103235;-79
2021/06/10 12:22:03;;;;;;;1.30;1.20;;;;;;;24.55;31.71;100270.79;153934;1096;103192;-77
2021/06/10 12:25:16;;;;;;;1.73;1.20;;;;;;;24.60;33.38;100275.53;153943;1101;103181;-78
2021/06/10 12:28:40;;;;;;;1.90;1.45;;;;;;;24.75;34.44;100264.03;154001;1101;103190;-79
2021/06/10 12:31:45;;;;;;;1.60;1.50;;;;;;;24.77;34.73;100262.73;153993;1096;103141;-78
2021/06/10 12:34:58;;;;;;;2.60;1.53;;;;;;;24.80;34.35;100258.67;153914;1096;103142;-79
2021/06/10 12:38:03;;;;;;;3.55;2.40;;;;;;;24.78;34.49;100253.45;153939;1101;103106;-79
2021/06/10 12:41:23;;;;;;;3.20;1.77;;;;;;;24.69;34.56;100255.78;153903;1094;103261;-78
2021/06/10 12:44:35;;;;;;;2.47;2.00;;;;;;;24.59;35.13;100252.86;153974;1100;103139;-78
2021/06/10 12:47:43;;;;;;;10.97;4.50;;;;;;;24.30;35.48;100261.03;153958;1093;103097;-78
2021/06/10 12:50:48;;;;;;;2.28;2.00;;;;;;;23.96;35.92;100259.27;153945;1097;103194;-78
2021/06/10 12:54:00;;;;;;;2.33;2.00;;;;;;;23.97;36.15;100259.03;153981;1101;103176;-77
2021/06/10 12:57:06;;;;;;;3.33;2.10;;;;;;;23.90;35.87;100251.00;153922;1101;103287;-79
2021/06/10 13:00:15;;;;;;;2.50;2.00;;;;;;;23.97;36.44;100247.30;154006;1093;103182;-78
2021/06/10 13:03:20;;;;;;;3.95;2.08;;;;;;;24.00;36.34;100249.53;153966;1093;103110;-78
2021/06/10 13:06:25;;;;;;;5.23;2.58;;;;;;;24.19;36.11;100239.27;153931;1097;103135;-78
2021/06/10 13:09:30;;;;;;;2.93;2.00;;;;;;;24.26;35.16;100246.23;153976;1101;103218;-78
2021/06/10 13:12:41;;;;;;;4.20;2.60;;;;;;;24.39;34.97;100238.84;153959;1101;103355;-79
2021/06/10 13:15:47;;;;;;;4.58;2.25;;;;;;;24.50;35.18;100230.59;154000;1093;103196;-79
2021/06/10 13:18:52;;;;;;;2.78;2.30;;;;;;;24.64;35.07;100225.67;153937;1096;103195;-78
2021/06/10 13:22:10;;;;;;;2.55;2.18;;;;;;;24.66;35.46;100226.25;153953;1101;103564;-79
2021/06/10 13:25:15;;;;;;;3.88;1.90;;;;;;;24.54;34.98;100222.78;153969;1096;103128;-78
2021/06/10 13:28:20;;;;;;;1.93;1.60;;;;;;;24.59;35.60;100224.75;153891;1094;103171;-78
2021/06/10 13:31:28;;;;;;;2.20;2.00;;;;;;;24.66;33.82;100223.52;153955;1093;103190;-79
2021/06/10 13:34:36;;;;;;;2.17;1.93;;;;;;;24.56;34.81;100220.63;153920;1093;103598;-79
2021/06/10 13:37:41;;;;;;;1.95;1.78;;;;;;;24.37;34.80;100227.35;153909;1096;103208;-79
2021/06/10 13:40:45;;;;;;;2.15;1.60;;;;;;;24.30;35.56;100228.30;153930;1101;103285;-80
2021/06/10 13:43:50;;;;;;;3.97;1.93;;;;;;;24.40;35.70;100216.75;153900;1093;103245;-79
2021/06/10 13:46:56;;;;;;;3.57;2.10;;;;;;;24.47;34.79;100211.98;153983;1093;103153;-78
2021/06/10 13:50:02;;;;;;;2.20;2.00;;;;;;;24.48;35.46;100207.34;153959;1101;103126;-76
2021/06/10 13:53:07;;;;;;;2.35;1.85;;;;;;;24.30;35.08;100225.58;154014;1101;103190;-78
2021/06/10 13:56:12;;;;;;;2.77;2.10;;;;;;;24.00;35.53;100225.00;154045;1101;103115;-80
2021/06/10 13:59:17;;;;;;;2.45;2.10;;;;;;;23.76;35.76;100222.33;154164;1093;103232;-82
2021/06/10 14:02:21;;;;;;;2.48;2.05;;;;;;;23.60;36.04;100209.47;154198;1101;103195;-80
2021/06/10 14:05:26;;;;;;;2.00;1.80;;;;;;;23.47;35.82;100214.09;154050;1101;103139;-85
2021/06/10 14:08:32;;;;;;;2.27;1.80;;;;;;;23.33;35.74;100216.25;154099;1101;103097;-84